Time;durP1;ratioP1;P1;durP2;ratioP2;P2;SDS_P1;SDS_P2;PMS_P1;PMS_P2;Temp;Humidity;BMP_temperature;BMP_pressure;BME280_temperature;BME280_humidity;BME280_pressure;Samples;Min_cycle;Max_cycle;Signal;HPM_P1;HPM_P2
2021/04/18 00:00:27;;;;;;;20.13;13.27;;;5.40;81.80;;;;;;4965848;28;20027;-87
2021/04/18 00:02:53;;;;;;;22.33;14.30;;;5.40;82.00;;;;;;4965325;28;20057;-87
2021/04/18 00:05:24;;;;;;;20.45;13.90;;;5.40;82.10;;;;;;4958588;28;20035;-87
2021/04/18 00:07:51;;;;;;;20.83;14.18;;;5.30;82.30;;;;;;4962091;28;20030;-87
2021/04/18 00:10:18;;;;;;;24.63;14.88;;;5.30;82.50;;;;;;4959541;28;20035;-87
2021/04/18 00:12:44;;;;;;;21.70;14.07;;;5.30;82.70;;;;;;4959637;28;20129;-87
2021/04/18 00:15:13;;;;;;;23.17;14.18;;;5.40;82.80;;;;;;4959363;28;20026;-87
2021/04/18 00:17:39;;;;;;;21.30;14.77;;;5.40;83.00;;;;;;4958971;28;20026;-87
2021/04/18 00:20:13;;;;;;;23.40;14.98;;;5.40;83.10;;;;;;4959813;28;20034;-87
2021/04/18 00:22:39;;;;;;;26.52;16.15;;;5.40;83.00;;;;;;4959465;28;20038;-88
2021/04/18 00:25:06;;;;;;;28.30;17.38;;;5.50;83.00;;;;;;4959400;28;20489;-87
2021/04/18 00:27:32;;;;;;;33.38;17.65;;;5.50;82.90;;;;;;4958885;28;20074;-87
2021/04/18 00:29:57;;;;;;;30.83;16.73;;;5.50;82.90;;;;;;4958996;28;20607;-87
2021/04/18 00:32:23;;;;;;;28.80;17.33;;;5.50;83.00;;;;;;4958998;28;20046;-87
2021/04/18 00:34:49;;;;;;;26.45;16.50;;;5.60;83.10;;;;;;4959155;28;20058;-88
2021/04/18 00:37:14;;;;;;;30.33;17.30;;;5.60;83.00;;;;;;4959752;28;20023;-87
2021/04/18 00:39:40;;;;;;;27.95;16.00;;;5.60;83.00;;;;;;4959785;28;20041;-87
2021/04/18 00:42:06;;;;;;;21.92;14.88;;;5.60;83.00;;;;;;4976895;28;20467;-87
2021/04/18 00:44:32;;;;;;;25.52;15.48;;;5.70;83.00;;;;;;4960244;28;20406;-87
2021/04/18 00:46:57;;;;;;;24.55;15.48;;;5.70;82.90;;;;;;4977115;28;20039;-87
2021/04/18 00:49:23;;;;;;;20.15;13.55;;;5.70;82.90;;;;;;4959217;28;20031;-87
2021/04/18 00:51:49;;;;;;;19.95;12.82;;;5.70;82.90;;;;;;4958430;28;20375;-87
2021/04/18 00:54:15;;;;;;;21.40;16.20;;;5.80;83.00;;;;;;4958626;28;20033;-87
2021/04/18 00:56:40;;;;;;;23.17;16.25;;;5.80;83.00;;;;;;4976534;28;20101;-87
2021/04/18 00:59:06;;;;;;;24.27;16.52;;;5.80;83.00;;;;;;4958567;28;20030;-87
2021/04/18 01:01:33;;;;;;;29.15;18.88;;;5.80;83.00;;;;;;4958581;28;20486;-87
2021/04/18 01:03:59;;;;;;;30.58;22.10;;;5.80;83.40;;;;;;4958372;28;20478;-87
2021/04/18 01:06:24;;;;;;;32.70;24.33;;;5.80;83.20;;;;;;4959112;28;20038;-87
2021/04/18 01:08:50;;;;;;;29.40;21.17;;;5.80;83.40;;;;;;4958380;28;20487;-86
2021/04/18 01:11:16;;;;;;;29.55;19.85;;;5.70;83.40;;;;;;4958267;28;20035;-87
2021/04/18 01:13:42;;;;;;;27.20;17.98;;;5.70;83.30;;;;;;4958313;28;20027;-88
2021/04/18 01:16:07;;;;;;;23.20;16.20;;;5.70;83.40;;;;;;4975256;28;20076;-88
2021/04/18 01:18:33;;;;;;;23.42;16.38;;;5.70;83.50;;;;;;4958242;28;20379;-87
2021/04/18 01:21:10;;;;;;;20.83;14.68;;;5.70;83.50;;;;;;4958823;28;20112;-87
2021/04/18 01:23:36;;;;;;;28.27;16.70;;;5.70;83.80;;;;;;4976048;28;20366;-87
2021/04/18 01:26:03;;;;;;;25.73;14.90;;;5.70;83.60;;;;;;4957894;28;20112;-87
2021/04/18 01:28:28;;;;;;;23.50;15.98;;;5.70;83.60;;;;;;4958068;28;20165;-87
2021/04/18 01:30:55;;;;;;;19.15;14.02;;;5.70;83.60;;;;;;4975917;28;20087;-87
2021/04/18 01:33:21;;;;;;;22.75;14.25;;;5.70;83.50;;;;;;4963658;28;20038;-87
2021/04/18 01:35:48;;;;;;;25.13;16.10;;;5.80;83.60;;;;;;4983091;28;20030;-88
2021/04/18 01:38:16;;;;;;;23.15;14.98;;;5.70;83.60;;;;;;4965981;28;20034;-87
2021/04/18 01:40:43;;;;;;;22.75;15.48;;;5.80;83.80;;;;;;4964654;28;20078;-87
2021/04/18 01:43:13;;;;;;;20.67;13.93;;;5.80;83.60;;;;;;4960110;28;20039;-87
2021/04/18 01:45:38;;;;;;;21.92;15.27;;;5.80;83.60;;;;;;4957856;28;20026;-87
2021/04/18 01:48:05;;;;;;;21.70;14.45;;;5.80;83.80;;;;;;4957937;28;20521;-87
2021/04/18 01:50:32;;;;;;;16.08;12.40;;;5.80;83.70;;;;;;4957927;28;20030;-87
2021/04/18 01:52:58;;;;;;;18.42;13.43;;;5.80;83.70;;;;;;4961222;28;20042;-87
2021/04/18 01:55:24;;;;;;;20.58;14.32;;;5.80;83.70;;;;;;4961833;28;20027;-87
2021/04/18 01:57:50;;;;;;;19.92;13.50;;;5.90;83.80;;;;;;4962124;28;20054;-87
2021/04/18 02:00:16;;;;;;;22.02;15.07;;;5.90;83.70;;;;;;4961355;28;20126;-87
2021/04/18 02:02:42;;;;;;;21.15;14.73;;;5.90;83.60;;;;;;4975664;28;20393;-86
2021/04/18 02:05:09;;;;;;;18.83;14.75;;;5.90;83.60;;;;;;4957712;28;20478;-87
2021/04/18 02:07:34;;;;;;;21.42;14.70;;;5.90;83.60;;;;;;4958127;28;20474;-87
2021/04/18 02:10:00;;;;;;;20.67;13.68;;;5.90;83.60;;;;;;4975382;28;20037;-87
2021/04/18 02:12:26;;;;;;;19.13;14.18;;;5.90;83.60;;;;;;4957557;28;20046;-87
2021/04/18 02:14:52;;;;;;;16.33;11.43;;;5.90;83.60;;;;;;4957531;28;20356;-87
2021/04/18 02:17:17;;;;;;;16.50;11.40;;;5.90;83.70;;;;;;4975085;28;20027;-87
2021/04/18 02:19:43;;;;;;;14.27;10.93;;;5.90;83.70;;;;;;4958094;28;20031;-87
2021/04/18 02:22:09;;;;;;;16.40;11.35;;;5.90;83.60;;;;;;4957503;28;20126;-87
2021/04/18 02:24:35;;;;;;;13.88;10.13;;;5.90;83.60;;;;;;4957929;28;20072;-87
2021/04/18 02:27:00;;;;;;;13.45;10.13;;;5.90;83.60;;;;;;4957244;28;20046;-88
2021/04/18 02:29:26;;;;;;;13.13;9.77;;;5.90;83.70;;;;;;4960197;28;20385;-87
2021/04/18 02:31:52;;;;;;;16.17;10.90;;;5.90;83.60;;;;;;4961253;28;20035;-87
2021/04/18 02:34:17;;;;;;;15.57;11.80;;;5.90;83.40;;;;;;4961448;28;20031;-88
2021/04/18 02:36:43;;;;;;;16.45;10.95;;;5.90;83.20;;;;;;4962120;28;20054;-87
2021/04/18 02:39:09;;;;;;;14.23;10.35;;;5.80;83.00;;;;;;4961275;28;20045;-87
2021/04/18 02:41:35;;;;;;;14.60;10.25;;;5.80;83.20;;;;;;4961899;28;20054;-87
2021/04/18 02:44:00;;;;;;;14.70;10.35;;;5.70;83.40;;;;;;4961048;28;20027;-87
2021/04/18 02:46:27;;;;;;;13.38;9.32;;;5.70;83.50;;;;;;4978293;28;20109;-87
2021/04/18 02:48:53;;;;;;;16.52;11.00;;;5.70;83.80;;;;;;4961621;28;20373;-87
2021/04/18 02:51:18;;;;;;;14.45;10.70;;;5.70;84.00;;;;;;4961034;28;20030;-87
2021/04/18 02:53:44;;;;;;;17.30;11.75;;;5.70;84.10;;;;;;4961266;28;20082;-87
2021/04/18 02:56:10;;;;;;;14.57;10.02;;;5.60;84.20;;;;;;4961687;28;20430;-87
2021/04/18 02:58:35;;;;;;;20.13;13.25;;;5.70;84.20;;;;;;4961323;28;20027;-87
2021/04/18 03:01:01;;;;;;;16.30;11.05;;;5.70;84.40;;;;;;4961507;28;20046;-87
2021/04/18 03:03:27;;;;;;;18.50;13.32;;;5.70;84.30;;;;;;4962119;28;20362;-87
2021/04/18 03:05:53;;;;;;;21.02;13.98;;;5.70;84.40;;;;;;4960790;28;20387;-88
2021/04/18 03:08:18;;;;;;;20.13;13.98;;;5.70;84.30;;;;;;4961009;28;20070;-87
2021/04/18 03:10:44;;;;;;;20.23;13.40;;;5.70;84.30;;;;;;4964377;28;20192;-87
2021/04/18 03:13:10;;;;;;;21.55;14.73;;;5.70;84.40;;;;;;4980443;28;20035;-87
2021/04/18 03:15:35;;;;;;;18.10;14.05;;;5.70;84.40;;;;;;4963274;28;20495;-87
2021/04/18 03:18:02;;;;;;;19.02;13.15;;;5.70;84.50;;;;;;4965963;28;20033;-88
2021/04/18 03:20:28;;;;;;;19.42;13.63;;;5.70;84.40;;;;;;4979655;28;20023;-87
2021/04/18 03:22:55;;;;;;;17.50;12.73;;;5.70;84.60;;;;;;4960261;28;20031;-87
2021/04/18 03:25:20;;;;;;;17.58;12.48;;;5.70;84.70;;;;;;4977613;28;20031;-87
2021/04/18 03:27:46;;;;;;;17.77;13.13;;;5.70;84.70;;;;;;4960004;28;20105;-87
2021/04/18 03:30:12;;;;;;;17.73;12.65;;;5.70;84.80;;;;;;4960557;28;20027;-87
2021/04/18 03:32:38;;;;;;;16.63;12.77;;;5.70;85.00;;;;;;4959983;28;20092;-87
2021/04/18 03:35:05;;;;;;;16.30;11.80;;;5.70;85.10;;;;;;4960117;28;20416;-87
2021/04/18 03:37:31;;;;;;;17.70;12.27;;;5.70;84.90;;;;;;4960028;28;20035;-87
2021/04/18 03:39:56;;;;;;;18.45;13.32;;;5.70;85.40;;;;;;4960878;28;20042;-86
2021/04/18 03:42:22;;;;;;;17.38;12.98;;;5.70;85.10;;;;;;4960329;28;20031;-87
2021/04/18 03:44:48;;;;;;;14.40;10.85;;;5.70;85.30;;;;;;4960013;28;20482;-87
2021/04/18 03:47:13;;;;;;;14.30;11.23;;;5.80;85.20;;;;;;4959997;28;20034;-87
2021/04/18 03:49:39;;;;;;;18.45;13.55;;;5.80;85.20;;;;;;4961000;28;20485;-87
2021/04/18 03:52:05;;;;;;;19.65;14.40;;;5.80;85.40;;;;;;4961402;28;20031;-88
2021/04/18 03:54:32;;;;;;;17.02;11.98;;;5.80;85.20;;;;;;4961573;28;20027;-87
2021/04/18 03:56:58;;;;;;;17.92;13.38;;;5.90;85.20;;;;;;4960949;28;20059;-87
2021/04/18 03:59:24;;;;;;;20.20;15.00;;;5.90;85.20;;;;;;4961098;28;20031;-88
2021/04/18 04:01:50;;;;;;;21.08;14.90;;;6.00;85.40;;;;;;4978030;28;20031;-88
2021/04/18 04:04:15;;;;;;;19.40;13.40;;;6.00;85.50;;;;;;4959837;28;20359;-87
2021/04/18 04:06:41;;;;;;;19.10;13.10;;;6.00;85.30;;;;;;4959705;28;20046;-87
2021/04/18 04:09:07;;;;;;;19.50;13.73;;;6.00;85.40;;;;;;4959917;28;20042;-87
2021/04/18 04:11:33;;;;;;;17.17;11.95;;;6.00;85.50;;;;;;4959988;28;20081;-87
2021/04/18 04:13:58;;;;;;;16.55;11.95;;;6.10;85.60;;;;;;4960428;28;20030;-87
2021/04/18 04:16:24;;;;;;;17.65;12.98;;;6.10;85.40;;;;;;4959235;28;20031;-87
2021/04/18 04:18:50;;;;;;;15.82;11.73;;;6.20;85.80;;;;;;4959585;28;20062;-87
2021/04/18 04:21:15;;;;;;;16.17;11.70;;;6.20;85.40;;;;;;4959931;28;20352;-87
2021/04/18 04:23:41;;;;;;;16.35;12.13;;;6.30;85.50;;;;;;4959212;28;20526;-87
2021/04/18 04:26:08;;;;;;;16.02;11.82;;;6.30;85.30;;;;;;4959759;28;20120;-88
2021/04/18 04:28:33;;;;;;;17.10;9.80;;;6.40;85.30;;;;;;4976519;28;20022;-87
2021/04/18 04:30:59;;;;;;;15.00;11.60;;;6.40;85.10;;;;;;4959007;28;20031;-87
2021/04/18 04:33:25;;;;;;;18.45;11.88;;;6.50;85.00;;;;;;4976886;28;20113;-87
2021/04/18 04:35:51;;;;;;;14.95;11.88;;;6.50;84.90;;;;;;4976268;28;20114;-88
2021/04/18 04:38:17;;;;;;;16.25;11.95;;;6.50;84.70;;;;;;4959349;28;20459;-87
2021/04/18 04:40:42;;;;;;;16.75;13.45;;;6.50;85.00;;;;;;4959219;28;20038;-87
2021/04/18 04:43:08;;;;;;;18.65;13.25;;;6.50;85.30;;;;;;4959130;28;20062;-87
2021/04/18 04:45:34;;;;;;;16.40;11.50;;;6.60;85.70;;;;;;4976236;28;20035;-87
2021/04/18 04:47:59;;;;;;;16.30;12.00;;;6.60;85.30;;;;;;4979487;28;20442;-87
2021/04/18 04:50:25;;;;;;;16.58;11.60;;;6.70;85.40;;;;;;4964040;28;20459;-87
2021/04/18 04:52:52;;;;;;;16.98;11.43;;;6.80;85.50;;;;;;4972868;28;20462;-88
2021/04/18 04:55:18;;;;;;;14.57;11.32;;;6.90;85.20;;;;;;4967440;28;20023;-87
2021/04/18 04:57:44;;;;;;;15.55;11.77;;;7.00;85.20;;;;;;4964878;28;20023;-87
2021/04/18 05:00:10;;;;;;;15.68;12.27;;;7.10;85.00;;;;;;4962483;28;20031;-88
2021/04/18 05:02:36;;;;;;;18.98;14.80;;;7.30;84.90;;;;;;4959129;28;20037;-89
2021/04/18 05:05:02;;;;;;;18.13;13.20;;;7.40;84.80;;;;;;4958662;28;20027;-88
2021/04/18 05:07:28;;;;;;;19.70;13.98;;;7.50;84.70;;;;;;4958817;28;20172;-88
2021/04/18 05:09:54;;;;;;;16.85;13.85;;;7.60;84.50;;;;;;4958761;28;20027;-89
2021/04/18 05:12:19;;;;;;;19.20;13.30;;;7.70;84.10;;;;;;4959692;28;20035;-88
2021/04/18 05:14:45;;;;;;;18.40;13.77;;;7.90;84.00;;;;;;4958352;28;20027;-88
2021/04/18 05:17:11;;;;;;;22.50;14.60;;;7.90;83.90;;;;;;4975322;28;20355;-89
2021/04/18 05:19:37;;;;;;;19.48;15.75;;;8.10;83.80;;;;;;4976192;28;20031;-89
2021/04/18 05:22:03;;;;;;;18.25;14.82;;;8.20;83.50;;;;;;4958284;28;20058;-89
2021/04/18 05:24:28;;;;;;;22.48;14.25;;;8.30;83.40;;;;;;4975693;28;20026;-88
2021/04/18 05:26:54;;;;;;;17.55;13.95;;;8.40;83.30;;;;;;4958346;28;20097;-89
2021/04/18 05:29:20;;;;;;;18.55;13.25;;;8.50;83.00;;;;;;4958395;28;20503;-88
2021/04/18 05:31:46;;;;;;;19.25;13.77;;;8.60;82.80;;;;;;4958156;28;20049;-88
2021/04/18 05:34:13;;;;;;;16.23;11.90;;;8.70;82.60;;;;;;4958392;28;20031;-89
2021/04/18 05:36:39;;;;;;;18.08;13.70;;;8.90;82.40;;;;;;4958321;28;20513;-89
2021/04/18 05:39:08;;;;;;;13.80;10.25;;;9.00;82.30;;;;;;4958743;28;20026;-88
2021/04/18 05:41:37;;;;;;;14.65;11.15;;;9.10;82.20;;;;;;4958557;28;20129;-88
2021/04/18 05:44:04;;;;;;;16.50;12.75;;;9.20;82.00;;;;;;4958408;28;20034;-89
2021/04/18 05:46:30;;;;;;;16.83;12.25;;;9.40;81.80;;;;;;4958940;28;20023;-89
2021/04/18 05:48:56;;;;;;;17.75;12.50;;;9.40;81.40;;;;;;4958336;28;20521;-89
2021/04/18 05:51:21;;;;;;;17.83;14.15;;;9.50;81.00;;;;;;4958541;28;20500;-88
2021/04/18 05:53:47;;;;;;;15.52;12.48;;;9.50;81.00;;;;;;4958426;28;20033;-89
2021/04/18 05:56:13;;;;;;;16.17;12.95;;;9.50;80.80;;;;;;4958469;28;20030;-88
2021/04/18 05:58:39;;;;;;;17.10;13.25;;;9.50;80.60;;;;;;4958638;28;20390;-88
2021/04/18 06:01:05;;;;;;;17.08;13.52;;;9.60;80.60;;;;;;4958995;28;20039;-89
2021/04/18 06:03:30;;;;;;;17.33;12.45;;;9.60;80.40;;;;;;4959379;28;20027;-88
2021/04/18 06:05:56;;;;;;;17.13;13.43;;;9.60;80.60;;;;;;4962900;28;20054;-89
2021/04/18 06:08:22;;;;;;;15.60;12.30;;;9.70;80.70;;;;;;4979059;28;20022;-88
2021/04/18 06:10:47;;;;;;;22.30;13.00;;;9.80;81.00;;;;;;4961956;28;20113;-89
2021/04/18 06:13:13;;;;;;;15.65;11.05;;;10.00;81.20;;;;;;4944809;29;20561;-88
2021/04/18 06:15:39;;;;;;;15.10;11.38;;;10.20;81.10;;;;;;4944999;29;20034;-89
2021/04/18 06:18:05;;;;;;;14.70;11.52;;;10.50;81.00;;;;;;4944732;29;20031;-89
2021/04/18 06:20:31;;;;;;;17.88;13.30;;;10.80;80.50;;;;;;4944265;29;20023;-89
2021/04/18 06:22:57;;;;;;;15.40;12.15;;;11.10;79.00;;;;;;4943807;29;20035;-89
2021/04/18 06:25:23;;;;;;;15.75;11.77;;;11.30;79.20;;;;;;4962237;29;20027;-89
2021/04/18 06:27:48;;;;;;;15.05;10.95;;;11.60;78.10;;;;;;4953115;29;20043;-89
2021/04/18 06:30:15;;;;;;;14.73;10.48;;;11.80;78.00;;;;;;4956582;29;20099;-88
2021/04/18 06:32:41;;;;;;;15.38;13.02;;;11.90;76.80;;;;;;4957417;29;20063;-88
2021/04/18 06:35:08;;;;;;;16.50;12.48;;;12.00;74.80;;;;;;4954440;29;20112;-88
2021/04/18 06:37:34;;;;;;;17.35;12.70;;;12.00;73.70;;;;;;4953502;29;20031;-88
2021/04/18 06:40:00;;;;;;;16.83;12.35;;;11.90;73.10;;;;;;4960123;29;20027;-88
2021/04/18 06:42:30;;;;;;;16.63;12.85;;;11.70;73.20;;;;;;4943000;29;20031;-88
2021/04/18 06:44:56;;;;;;;18.92;14.27;;;11.60;72.50;;;;;;4959439;29;20027;-88
2021/04/18 06:47:23;;;;;;;23.42;13.77;;;11.30;72.80;;;;;;4941985;29;20062;-88
2021/04/18 06:49:50;;;;;;;19.63;11.93;;;11.10;73.10;;;;;;4941897;29;20125;-88
2021/04/18 06:52:16;;;;;;;18.60;13.25;;;11.00;74.10;;;;;;4959357;29;20113;-88
2021/04/18 06:54:41;;;;;;;17.80;12.80;;;11.00;74.40;;;;;;4942025;29;20466;-88
2021/04/18 06:57:08;;;;;;;19.10;13.30;;;11.00;74.50;;;;;;4958961;29;20150;-87
2021/04/18 06:59:37;;;;;;;16.45;12.25;;;11.00;74.20;;;;;;4959210;29;20023;-88
2021/04/18 07:02:05;;;;;;;18.60;12.63;;;11.00;74.00;;;;;;4941439;29;20502;-88
2021/04/18 07:04:33;;;;;;;15.48;11.68;;;11.00;74.00;;;;;;4942263;29;20348;-88
2021/04/18 07:06:58;;;;;;;15.65;12.05;;;11.10;73.80;;;;;;4941320;29;20023;-88
2021/04/18 07:09:26;;;;;;;16.23;11.75;;;11.10;73.50;;;;;;4941769;29;20034;-88
2021/04/18 07:11:58;;;;;;;16.52;12.40;;;11.20;73.70;;;;;;4941576;29;20479;-88
2021/04/18 07:14:25;;;;;;;12.00;10.15;;;11.40;72.80;;;;;;4941651;29;20031;-88
2021/04/18 07:17:11;;;;;;;15.18;11.15;;;11.50;73.00;;;;;;4941646;29;20399;-88
2021/04/18 07:19:40;;;;;;;14.13;10.02;;;11.70;72.10;;;;;;4940832;29;20122;-88
2021/04/18 07:22:06;;;;;;;15.10;10.77;;;11.90;72.60;;;;;;4941661;29;20086;-88
2021/04/18 07:24:46;;;;;;;15.48;11.23;;;12.10;71.20;;;;;;4941233;29;20034;-88
2021/04/18 07:27:12;;;;;;;15.50;11.00;;;12.20;70.70;;;;;;4941356;29;20417;-88
2021/04/18 07:29:38;;;;;;;17.67;12.57;;;12.20;70.60;;;;;;4942918;29;20126;-88
2021/04/18 07:32:18;;;;;;;16.00;11.20;;;12.30;69.50;;;;;;4945711;29;20039;-88
2021/04/18 07:34:44;;;;;;;14.77;9.68;;;12.30;69.90;;;;;;4945310;29;20035;-88
2021/04/18 07:37:12;;;;;;;14.15;11.23;;;12.50;70.80;;;;;;4960015;29;20054;-88
2021/04/18 07:39:59;;;;;;;13.98;11.18;;;12.70;70.30;;;;;;4958313;29;20039;-89
2021/04/18 07:42:34;;;;;;;16.13;11.20;;;12.90;67.10;;;;;;4958544;29;20379;-89
2021/04/18 07:45:07;;;;;;;14.77;11.02;;;13.00;68.00;;;;;;4941231;29;20102;-88
2021/04/18 07:47:38;;;;;;;14.10;11.50;;;13.10;68.00;;;;;;4941030;29;20085;-89
2021/04/18 07:50:13;;;;;;;13.13;10.95;;;13.00;67.50;;;;;;4941198;29;20494;-89
2021/04/18 07:52:44;;;;;;;17.58;11.43;;;12.90;66.00;;;;;;4941292;29;20043;-88
2021/04/18 07:55:12;;;;;;;15.35;10.00;;;13.00;67.10;;;;;;4943332;28;20216;-88
2021/04/18 07:57:40;;;;;;;10.45;8.77;;;13.10;67.30;;;;;;4961254;28;20114;-88
2021/04/18 08:00:08;;;;;;;11.60;8.95;;;13.20;67.30;;;;;;4960031;28;20051;-88
2021/04/18 08:02:34;;;;;;;11.07;9.05;;;13.40;66.60;;;;;;4937923;29;20042;-88
2021/04/18 08:05:01;;;;;;;13.70;9.63;;;13.70;65.50;;;;;;4954728;28;20078;-87
2021/04/18 08:07:26;;;;;;;10.93;7.93;;;13.60;64.20;;;;;;4958337;28;20470;-87
2021/04/18 08:10:24;;;;;;;9.50;7.43;;;13.50;64.00;;;;;;4976140;28;20031;-87
2021/04/18 08:13:18;;;;;;;13.95;9.93;;;13.40;63.60;;;;;;4995408;28;20057;-88
2021/04/18 08:15:44;;;;;;;;;;;13.30;62.50;;;;;;4965675;28;20050;-86
2021/04/18 08:18:15;;;;;;;15.70;9.93;;;13.10;61.30;;;;;;4976398;28;20422;-86
2021/04/18 08:20:44;;;;;;;11.20;9.15;;;13.00;64.20;;;;;;4947408;29;20070;-85
2021/04/18 08:23:13;;;;;;;11.85;9.20;;;12.90;63.40;;;;;;4958230;29;20038;-85
2021/04/18 08:26:07;;;;;;;11.68;8.80;;;12.90;63.40;;;;;;4958180;28;20067;-86
2021/04/18 08:28:55;;;;;;;10.33;8.40;;;13.10;63.00;;;;;;4965387;28;20050;-86
2021/04/18 08:31:46;;;;;;;10.40;8.10;;;13.20;60.00;;;;;;4951260;29;20043;-85
2021/04/18 08:34:20;;;;;;;10.52;8.32;;;13.20;61.00;;;;;;4953024;29;20483;-87
2021/04/18 08:36:46;;;;;;;;;;;13.20;60.60;;;;;;4952906;29;20027;-86
2021/04/18 08:39:15;;;;;;;11.68;8.48;;;13.00;60.20;;;;;;4951641;29;19966;-85
2021/04/18 08:41:44;;;;;;;12.98;10.15;;;13.00;62.60;;;;;;4939589;29;20431;-86
2021/04/18 08:44:15;;;;;;;12.43;9.65;;;13.00;62.40;;;;;;4942245;29;20050;-87
2021/04/18 08:46:41;;;;;;;13.15;9.57;;;13.10;63.20;;;;;;4942810;29;20031;-85
2021/04/18 08:49:07;;;;;;;12.80;8.57;;;13.30;63.00;;;;;;4946236;29;20503;-85
2021/04/18 08:51:33;;;;;;;10.43;8.18;;;13.50;62.80;;;;;;4946540;29;20039;-86
2021/04/18 08:54:00;;;;;;;10.18;8.10;;;13.80;61.20;;;;;;4946697;29;20126;-88
2021/04/18 08:56:49;;;;;;;11.15;8.93;;;13.90;60.90;;;;;;4964349;28;20466;-87
2021/04/18 08:59:16;;;;;;;11.85;8.27;;;14.00;60.80;;;;;;4946271;29;20043;-86
2021/04/18 09:02:00;;;;;;;10.65;8.25;;;14.10;60.00;;;;;;4959294;28;20035;-87
2021/04/18 09:04:28;;;;;;;11.20;8.48;;;14.10;60.10;;;;;;4943285;29;20024;-85
2021/04/18 09:06:55;;;;;;;10.57;8.77;;;14.30;60.50;;;;;;4941622;29;20378;-87
2021/04/18 09:09:21;;;;;;;9.73;7.75;;;14.40;60.30;;;;;;4939210;28;20126;-87
2021/04/18 09:11:48;;;;;;;11.63;9.50;;;14.60;59.20;;;;;;4968092;28;20034;-87
2021/04/18 09:14:25;;;;;;;10.45;7.53;;;14.60;57.80;;;;;;4965190;28;20034;-91
2021/04/18 09:17:31;;;;;;;10.50;7.75;;;14.70;58.30;;;;;;4965409;28;20081;-92
2021/04/18 09:20:01;;;;;;;6.78;5.82;;;14.70;53.00;;;;;;4885213;29;20025;-92
2021/04/18 09:26:15;;;;;;;;;;;14.70;55.20;;;;;;4961132;28;20035;-95
2021/04/18 09:29:06;;;;;;;7.95;6.43;;;14.80;53.30;;;;;;4949245;29;19926;-93
2021/04/18 09:31:54;;;;;;;8.60;6.72;;;14.80;54.90;;;;;;4945966;29;20035;-94
2021/04/18 09:34:25;;;;;;;9.50;7.82;;;14.90;55.80;;;;;;4944723;29;20035;-96
2021/04/18 09:37:05;;;;;;;;;;;;;;;;;;;;;
2021/04/18 09:39:33;;;;;;;10.65;8.55;;;14.90;55.10;;;;;;4966369;28;20079;-89
2021/04/18 09:42:00;;;;;;;13.13;9.00;;;14.90;56.10;;;;;;4975875;28;20027;-87
2021/04/18 09:44:32;;;;;;;12.65;8.70;;;14.90;55.00;;;;;;4970221;28;20027;-87
2021/04/18 09:47:01;;;;;;;9.40;7.45;;;14.70;54.40;;;;;;4962813;28;20034;-88
2021/04/18 09:49:27;;;;;;;8.63;6.90;;;14.70;55.70;;;;;;4993457;28;20030;-87
2021/04/18 09:51:56;;;;;;;7.45;6.05;;;14.70;55.70;;;;;;4977387;28;20076;-88
2021/04/18 09:54:33;;;;;;;7.80;6.53;;;14.80;55.80;;;;;;4978346;28;20030;-87
2021/04/18 09:57:17;;;;;;;8.85;6.47;;;14.80;54.60;;;;;;4961081;28;20027;-88
2021/04/18 09:59:59;;;;;;;5.70;5.10;;;14.90;55.10;;;;;;4960939;28;20026;-87
2021/04/18 10:02:25;;;;;;;7.88;5.50;;;15.00;54.10;;;;;;4965722;28;20038;-87
2021/04/18 10:05:15;;;;;;;8.05;5.78;;;15.10;54.40;;;;;;4978523;28;20034;-87
2021/04/18 10:07:42;;;;;;;6.30;4.70;;;15.20;53.50;;;;;;4968029;28;20034;-87
2021/04/18 10:10:12;;;;;;;9.00;6.63;;;15.30;54.10;;;;;;4982122;28;20429;-88
2021/04/18 10:12:52;;;;;;;8.85;6.72;;;15.40;53.40;;;;;;4973263;28;20030;-87
2021/04/18 10:15:18;;;;;;;5.97;4.97;;;15.30;52.40;;;;;;4982714;28;20038;-87
2021/04/18 10:17:45;;;;;;;6.65;5.30;;;15.30;53.30;;;;;;4985547;28;20027;-87
2021/04/18 10:20:35;;;;;;;6.65;5.82;;;15.30;53.20;;;;;;4987953;28;20019;-89
2021/04/18 10:23:11;;;;;;;9.20;7.55;;;15.30;52.60;;;;;;4952516;28;20093;-86
2021/04/18 10:25:39;;;;;;;9.57;7.60;;;15.20;52.40;;;;;;4947518;28;20442;-88
2021/04/18 10:28:11;;;;;;;9.88;7.63;;;15.00;52.40;;;;;;4957133;28;20057;-87
2021/04/18 10:30:51;;;;;;;10.15;7.15;;;14.80;52.40;;;;;;4973407;28;20418;-88
2021/04/18 10:33:21;;;;;;;7.80;6.70;;;14.80;53.10;;;;;;4946157;28;20063;-88
2021/04/18 10:35:48;;;;;;;7.07;5.97;;;14.90;52.80;;;;;;4938054;29;20402;-87
2021/04/18 10:38:16;;;;;;;6.43;5.43;;;15.10;52.70;;;;;;4937605;29;20039;-86
2021/04/18 10:40:43;;;;;;;6.47;5.18;;;15.30;52.80;;;;;;4945267;28;20024;-88
2021/04/18 10:43:10;;;;;;;7.32;5.22;;;15.50;53.00;;;;;;4938814;29;20031;-87
2021/04/18 10:45:35;;;;;;;6.82;5.38;;;15.80;52.80;;;;;;4955763;28;20035;-87
2021/04/18 10:48:01;;;;;;;9.77;6.88;;;16.00;52.10;;;;;;4938119;29;20038;-88
2021/04/18 10:50:28;;;;;;;8.07;6.18;;;16.10;50.70;;;;;;4937152;29;20036;-87
2021/04/18 10:52:54;;;;;;;10.68;7.53;;;16.00;49.90;;;;;;4950130;29;20494;-89
2021/04/18 10:55:19;;;;;;;7.45;5.72;;;15.80;49.90;;;;;;4944404;29;20042;-87
2021/04/18 10:57:45;;;;;;;6.97;6.03;;;15.70;50.30;;;;;;4939196;29;20026;-87
2021/04/18 11:00:17;;;;;;;7.65;5.65;;;15.60;50.30;;;;;;4942913;28;20026;-88
2021/04/18 11:02:44;;;;;;;6.63;5.45;;;15.60;49.80;;;;;;4951994;29;20118;-89
2021/04/18 11:05:14;;;;;;;8.48;5.65;;;15.50;48.90;;;;;;4942110;29;20126;-88
2021/04/18 11:07:40;;;;;;;4.68;4.18;;;15.50;49.50;;;;;;4937440;29;20102;-88
2021/04/18 11:10:07;;;;;;;5.75;4.78;;;15.50;50.70;;;;;;4941463;29;20028;-88
2021/04/18 11:12:35;;;;;;;6.32;5.47;;;15.60;50.10;;;;;;4940058;29;20031;-87
2021/04/18 11:15:01;;;;;;;6.50;5.50;;;15.70;49.40;;;;;;4958646;28;20045;-87
2021/04/18 11:20:45;;;;;;;6.50;5.25;;;15.70;47.50;;;;;;4943546;29;20130;-87
2021/04/18 11:23:16;;;;;;;5.72;5.10;;;15.60;48.50;;;;;;4941752;29;20174;-89
2021/04/18 11:25:47;;;;;;;6.50;5.18;;;15.60;47.70;;;;;;4942946;29;20036;-90
2021/04/18 11:28:15;;;;;;;6.70;4.97;;;15.50;48.30;;;;;;4953770;28;20093;-87
2021/04/18 11:30:41;;;;;;;6.15;4.68;;;15.70;48.70;;;;;;4960593;28;20031;-89
2021/04/18 11:33:38;;;;;;;;;;;;;;;;;;;;;
2021/04/18 11:36:17;;;;;;;6.40;5.10;;;16.30;49.60;;;;;;4985314;28;20453;-91
2021/04/18 11:39:02;;;;;;;5.45;4.45;;;16.70;47.50;;;;;;4986445;28;20473;-92
2021/04/18 11:45:15;;;;;;;5.80;4.95;;;17.10;46.30;;;;;;4900462;29;20039;-91
2021/04/18 11:48:51;;;;;;;5.18;4.20;;;17.10;46.60;;;;;;4900587;29;20112;-91
2021/04/18 11:51:13;;;;;;;5.95;4.30;;;16.90;47.10;;;;;;4892525;29;20040;-92
2021/04/18 11:53:39;;;;;;;6.43;5.05;;;16.80;47.70;;;;;;4914592;28;20114;-87
2021/04/18 11:56:08;;;;;;;7.45;4.30;;;16.70;47.00;;;;;;5010571;28;20026;-87
2021/04/18 11:58:37;;;;;;;5.75;4.32;;;16.50;46.90;;;;;;4982593;28;20082;-87
2021/04/18 12:01:07;;;;;;;4.93;4.07;;;16.20;47.40;;;;;;4974423;28;20038;-92
2021/04/18 12:03:51;;;;;;;5.47;4.40;;;16.00;47.80;;;;;;4965808;28;20031;-91
2021/04/18 12:06:31;;;;;;;6.82;5.60;;;15.80;48.20;;;;;;4966867;28;20038;-93
2021/04/18 12:09:40;;;;;;;;;;;;;;;;;;;;;
2021/04/18 12:12:49;;;;;;;;;;;;;;;;;;;;;
2021/04/18 12:25:34;;;;;;;4.97;4.18;;;14.90;49.50;;;;;;4921325;29;20127;-91
2021/04/18 12:28:08;;;;;;;5.18;4.03;;;14.70;49.90;;;;;;4916729;29;20051;-90
2021/04/18 12:30:38;;;;;;;6.32;4.20;;;14.50;49.90;;;;;;4940789;28;20133;-90
2021/04/18 12:33:27;;;;;;;;;;;;;;;;;;;;;
2021/04/18 12:36:22;;;;;;;4.60;3.50;;;14.30;50.50;;;;;;5010302;28;20066;-90
2021/04/18 13:32:09;;;;;;;7.85;6.03;;;12.40;60.90;;;;;;4943988;29;20281;-91
2021/04/18 13:35:11;;;;;;;6.35;5.13;;;12.30;61.30;;;;;;4940196;29;20075;-90
2021/04/18 13:38:27;;;;;;;;;;;;;;;;;;;;;
2021/04/18 13:44:05;;;;;;;10.15;6.90;;;12.20;62.90;;;;;;4923598;29;20186;-89
2021/04/18 13:46:33;;;;;;;7.95;6.18;;;12.20;62.60;;;;;;4940784;29;20034;-88
2021/04/18 13:49:34;;;;;;;9.70;6.57;;;12.20;63.10;;;;;;4938451;29;20038;-91
2021/04/18 13:52:02;;;;;;;9.73;6.82;;;12.20;63.30;;;;;;4923772;29;20028;-89
2021/04/18 13:54:32;;;;;;;9.70;6.50;;;12.10;63.50;;;;;;4904441;29;20036;-90
2021/04/18 13:56:59;;;;;;;8.75;6.72;;;12.10;63.80;;;;;;4924332;29;20036;-88
2021/04/18 13:59:25;;;;;;;8.48;7.18;;;12.10;63.70;;;;;;4918431;29;20044;-90
2021/04/18 14:01:51;;;;;;;8.68;6.53;;;12.10;63.90;;;;;;4918399;29;20460;-88
2021/04/18 14:07:31;;;;;;;8.02;6.55;;;12.10;64.10;;;;;;4933300;29;20051;-89
2021/04/18 14:10:02;;;;;;;7.43;5.55;;;12.10;64.10;;;;;;4927500;29;20035;-88
2021/04/18 14:12:29;;;;;;;8.23;6.65;;;12.10;64.20;;;;;;4920388;29;20495;-87
2021/04/18 14:15:01;;;;;;;8.50;6.88;;;12.20;64.50;;;;;;4933956;29;20040;-88
2021/04/18 14:17:29;;;;;;;10.20;6.72;;;12.10;64.70;;;;;;4929226;29;20103;-87